sensor_id;sensor_type;location;lat;lon;timestamp;pressure;altitude;pressure_sealevel;temperature;humidity
20019;BME280;10170;42.502;26.526;2022-08-03T00:01:48;99591.16;;;21.42;100.00
20019;BME280;10170;42.502;26.526;2022-08-03T00:04:15;99562.97;;;21.48;100.00
20019;BME280;10170;42.502;26.526;2022-08-03T00:06:41;99592.16;;;21.61;100.00
20019;BME280;10170;42.502;26.526;2022-08-03T00:09:09;99604.00;;;21.70;100.00
20019;BME280;10170;42.502;26.526;2022-08-03T00:11:36;99607.00;;;21.68;100.00
20019;BME280;10170;42.502;26.526;2022-08-03T00:14:07;99595.16;;;21.54;100.00
20019;BME280;10170;42.502;26.526;2022-08-03T00:16:34;99609.91;;;21.23;100.00
20019;BME280;10170;42.502;26.526;2022-08-03T00:19:01;99605.25;;;21.34;100.00
20019;BME280;10170;42.502;26.526;2022-08-03T00:21:28;99602.59;;;21.24;100.00
20019;BME280;10170;42.502;26.526;2022-08-03T00:23:55;99603.69;;;21.18;100.00
20019;BME280;10170;42.502;26.526;2022-08-03T00:26:22;99605.06;;;21.10;100.00
20019;BME280;10170;42.502;26.526;2022-08-03T00:28:49;99606.41;;;21.13;100.00
20019;BME280;10170;42.502;26.526;2022-08-03T00:31:16;99601.00;;;21.18;100.00
20019;BME280;10170;42.502;26.526;2022-08-03T00:34:03;99596.69;;;21.17;100.00
20019;BME280;10170;42.502;26.526;2022-08-03T00:36:31;99606.63;;;21.26;100.00
20019;BME280;10170;42.502;26.526;2022-08-03T00:38:58;99605.28;;;21.29;100.00
20019;BME280;10170;42.502;26.526;2022-08-03T00:41:25;99594.50;;;21.19;100.00
20019;BME280;10170;42.502;26.526;2022-08-03T00:43:51;99596.09;;;21.25;100.00
20019;BME280;10170;42.502;26.526;2022-08-03T00:46:18;99597.44;;;21.27;100.00
20019;BME280;10170;42.502;26.526;2022-08-03T00:48:48;99602.53;;;21.34;100.00
20019;BME280;10170;42.502;26.526;2022-08-03T00:51:15;99587.16;;;21.29;100.00
20019;BME280;10170;42.502;26.526;2022-08-03T00:53:43;99603.28;;;21.54;100.00
20019;BME280;10170;42.502;26.526;2022-08-03T00:56:15;99597.63;;;21.46;100.00
20019;BME280;10170;42.502;26.526;2022-08-03T00:58:45;99596.84;;;21.40;100.00
20019;BME280;10170;42.502;26.526;2022-08-03T01:01:13;99589.34;;;21.27;100.00
20019;BME280;10170;42.502;26.526;2022-08-03T01:03:40;99597.22;;;21.19;100.00
20019;BME280;10170;42.502;26.526;2022-08-03T01:08:43;99604.81;;;21.07;100.00
20019;BME280;10170;42.502;26.526;2022-08-03T01:14:37;99600.50;;;21.01;100.00
20019;BME280;10170;42.502;26.526;2022-08-03T01:17:15;99600.50;;;20.85;100.00
20019;BME280;10170;42.502;26.526;2022-08-03T01:20:04;99601.03;;;20.87;100.00
20019;BME280;10170;42.502;26.526;2022-08-03T01:31:22;99603.81;;;20.57;100.00
20019;BME280;10170;42.502;26.526;2022-08-03T01:33:59;99596.78;;;20.41;100.00
20019;BME280;10170;42.502;26.526;2022-08-03T01:36:34;99593.81;;;20.38;100.00
20019;BME280;10170;42.502;26.526;2022-08-03T01:39:04;99592.19;;;20.27;100.00
20019;BME280;10170;42.502;26.526;2022-08-03T01:41:39;99592.41;;;20.15;100.00
20019;BME280;10170;42.502;26.526;2022-08-03T01:44:09;99595.41;;;20.19;100.00
20019;BME280;10170;42.502;26.526;2022-08-03T01:47:00;99590.84;;;20.19;100.00
20019;BME280;10170;42.502;26.526;2022-08-03T01:49:31;99596.22;;;20.14;100.00
20019;BME280;10170;42.502;26.526;2022-08-03T01:51:59;99599.97;;;20.03;100.00
20019;BME280;10170;42.502;26.526;2022-08-03T01:54:36;99604.84;;;20.16;100.00
20019;BME280;10170;42.502;26.526;2022-08-03T01:57:07;99604.88;;;20.31;100.00
20019;BME280;10170;42.502;26.526;2022-08-03T01:59:36;99604.91;;;20.36;100.00
20019;BME280;10170;42.502;26.526;2022-08-03T02:02:04;99607.84;;;20.50;100.00
20019;BME280;10170;42.502;26.526;2022-08-03T02:04:54;99612.44;;;20.29;100.00
20019;BME280;10170;42.502;26.526;2022-08-03T02:07:24;99613.53;;;20.38;100.00
20019;BME280;10170;42.502;26.526;2022-08-03T02:09:53;99610.56;;;20.25;100.00
20019;BME280;10170;42.502;26.526;2022-08-03T02:12:23;99605.91;;;20.10;100.00
20019;BME280;10170;42.502;26.526;2022-08-03T02:14:50;99601.63;;;20.19;100.00
20019;BME280;10170;42.502;26.526;2022-08-03T02:17:18;99600.00;;;20.38;100.00
20019;BME280;10170;42.502;26.526;2022-08-03T02:20:07;99605.41;;;20.38;100.00
20019;BME280;10170;42.502;26.526;2022-08-03T02:22:34;99606.78;;;20.36;100.00
20019;BME280;10170;42.502;26.526;2022-08-03T02:25:08;99595.44;;;20.39;100.00
20019;BME280;10170;42.502;26.526;2022-08-03T02:27:39;99611.66;;;20.49;100.00
20019;BME280;10170;42.502;26.526;2022-08-03T02:30:10;99605.97;;;20.45;100.00
20019;BME280;10170;42.502;26.526;2022-08-03T02:32:40;99601.13;;;20.32;100.00
20019;BME280;10170;42.502;26.526;2022-08-03T02:35:12;99605.16;;;20.40;100.00
20019;BME280;10170;42.502;26.526;2022-08-03T02:37:46;99611.66;;;20.54;100.00
20019;BME280;10170;42.502;26.526;2022-08-03T02:40:17;99603.00;;;20.27;100.00
20019;BME280;10170;42.502;26.526;2022-08-03T02:42:45;99601.63;;;20.19;100.00
20019;BME280;10170;42.502;26.526;2022-08-03T02:45:13;99608.41;;;20.27;100.00
20019;BME280;10170;42.502;26.526;2022-08-03T02:47:43;99600.03;;;20.33;100.00
20019;BME280;10170;42.502;26.526;2022-08-03T02:50:22;99608.13;;;20.38;100.00
20019;BME280;10170;42.502;26.526;2022-08-03T02:52:51;99617.59;;;20.41;100.00
20019;BME280;10170;42.502;26.526;2022-08-03T02:55:20;99611.34;;;20.60;100.00
20019;BME280;10170;42.502;26.526;2022-08-03T02:57:49;99607.56;;;20.76;100.00
20019;BME280;10170;42.502;26.526;2022-08-03T03:00:17;99621.06;;;20.76;100.00
20019;BME280;10170;42.502;26.526;2022-08-03T03:02:56;99629.47;;;20.70;100.00
20019;BME280;10170;42.502;26.526;2022-08-03T03:05:23;99621.59;;;20.78;100.00
20019;BME280;10170;42.502;26.526;2022-08-03T03:08:14;99622.69;;;20.77;100.00
20019;BME280;10170;42.502;26.526;2022-08-03T03:10:49;99623.53;;;20.58;100.00
20019;BME280;10170;42.502;26.526;2022-08-03T03:13:21;99630.81;;;20.67;100.00
20019;BME280;10170;42.502;26.526;2022-08-03T03:15:48;99633.22;;;20.84;100.00
20019;BME280;10170;42.502;26.526;2022-08-03T03:18:16;99622.16;;;20.80;100.00
20019;BME280;10170;42.502;26.526;2022-08-03T03:20:48;99622.94;;;20.86;100.00
20019;BME280;10170;42.502;26.526;2022-08-03T03:23:17;99635.94;;;20.84;100.00
20019;BME280;10170;42.502;26.526;2022-08-03T03:25:45;99633.50;;;20.72;100.00
20019;BME280;10170;42.502;26.526;2022-08-03T03:28:13;99638.38;;;20.80;100.00
20019;BME280;10170;42.502;26.526;2022-08-03T03:30:40;99635.63;;;20.90;100.00
20019;BME280;10170;42.502;26.526;2022-08-03T03:33:07;99640.78;;;21.02;100.00
20019;BME280;10170;42.502;26.526;2022-08-03T03:35:34;99651.56;;;20.92;100.00
20019;BME280;10170;42.502;26.526;2022-08-03T03:38:05;99658.34;;;20.89;100.00
20019;BME280;10170;42.502;26.526;2022-08-03T03:40:34;99650.53;;;20.88;100.00
20019;BME280;10170;42.502;26.526;2022-08-03T03:43:02;99662.94;;;20.89;100.00
20019;BME280;10170;42.502;26.526;2022-08-03T03:45:29;99656.72;;;20.88;100.00
20019;BME280;10170;42.502;26.526;2022-08-03T03:47:59;99653.50;;;20.81;100.00
20019;BME280;10170;42.502;26.526;2022-08-03T03:50:27;99664.56;;;21.20;100.00
20019;BME280;10170;42.502;26.526;2022-08-03T03:52:53;99648.06;;;21.17;100.00
20019;BME280;10170;42.502;26.526;2022-08-03T03:55:20;99660.75;;;21.31;100.00
20019;BME280;10170;42.502;26.526;2022-08-03T03:57:47;99661.50;;;21.42;100.00
20019;BME280;10170;42.502;26.526;2022-08-03T04:00:16;99657.69;;;21.48;100.00
20019;BME280;10170;42.502;26.526;2022-08-03T04:02:46;99652.28;;;21.43;100.00
20019;BME280;10170;42.502;26.526;2022-08-03T04:05:14;99660.19;;;21.34;100.00
20019;BME280;10170;42.502;26.526;2022-08-03T04:08:03;99662.88;;;21.34;100.00
20019;BME280;10170;42.502;26.526;2022-08-03T04:16:31;99675.47;;;21.74;100.00
20019;BME280;10170;42.502;26.526;2022-08-03T04:19:05;99673.00;;;21.77;100.00
20019;BME280;10170;42.502;26.526;2022-08-03T04:21:34;99677.56;;;21.92;100.00
20019;BME280;10170;42.502;26.526;2022-08-03T04:24:05;99679.69;;;22.00;100.00
20019;BME280;10170;42.502;26.526;2022-08-03T04:26:37;99678.06;;;21.99;100.00
20019;BME280;10170;42.502;26.526;2022-08-03T04:29:05;99683.41;;;22.09;100.00
20019;BME280;10170;42.502;26.526;2022-08-03T04:31:34;99647.53;;;21.83;100.00
20019;BME280;10170;42.502;26.526;2022-08-03T04:34:01;99677.69;;;22.16;100.00
20019;BME280;10170;42.502;26.526;2022-08-03T04:36:31;99682.75;;;22.27;100.00
20019;BME280;10170;42.502;26.526;2022-08-03T04:39:15;99672.78;;;22.23;100.00
20019;BME280;10170;42.502;26.526;2022-08-03T04:41:44;99678.06;;;22.38;100.00
20019;BME280;10170;42.502;26.526;2022-08-03T04:44:37;99682.09;;;22.45;100.00
20019;BME280;10170;42.502;26.526;2022-08-03T04:47:04;99679.84;;;22.57;100.00
20019;BME280;10170;42.502;26.526;2022-08-03T04:49:31;99684.72;;;22.60;100.00
20019;BME280;10170;42.502;26.526;2022-08-03T04:51:58;99675.84;;;22.55;100.00
20019;BME280;10170;42.502;26.526;2022-08-03T04:54:25;99672.84;;;22.85;100.00
20019;BME280;10170;42.502;26.526;2022-08-03T04:56:52;99649.25;;;22.85;100.00
20019;BME280;10170;42.502;26.526;2022-08-03T04:59:19;99685.59;;;23.13;100.00
20019;BME280;10170;42.502;26.526;2022-08-03T05:01:46;99679.56;;;23.21;100.00
20019;BME280;10170;42.502;26.526;2022-08-03T05:04:13;99667.06;;;23.20;100.00
20019;BME280;10170;42.502;26.526;2022-08-03T05:06:40;99689.34;;;23.46;100.00
20019;BME280;10170;42.502;26.526;2022-08-03T05:09:20;99673.44;;;23.34;100.00
20019;BME280;10170;42.502;26.526;2022-08-03T05:12:07;99682.06;;;23.65;100.00
20019;BME280;10170;42.502;26.526;2022-08-03T05:14:34;99680.25;;;23.79;100.00
20019;BME280;10170;42.502;26.526;2022-08-03T05:17:04;99685.03;;;23.87;100.00
20019;BME280;10170;42.502;26.526;2022-08-03T05:19:31;99674.53;;;23.99;100.00
20019;BME280;10170;42.502;26.526;2022-08-03T05:21:58;99689.88;;;24.32;100.00
20019;BME280;10170;42.502;26.526;2022-08-03T05:24:25;99686.34;;;24.50;100.00
20019;BME280;10170;42.502;26.526;2022-08-03T05:26:52;99683.41;;;24.28;100.00
20019;BME280;10170;42.502;26.526;2022-08-03T05:29:19;99688.69;;;24.38;100.00
20019;BME280;10170;42.502;26.526;2022-08-03T05:31:46;99694.22;;;24.65;100.00
20019;BME280;10170;42.502;26.526;2022-08-03T05:34:13;99702.22;;;24.94;100.00
20019;BME280;10170;42.502;26.526;2022-08-03T05:36:40;99696.31;;;25.19;100.00
20019;BME280;10170;42.502;26.526;2022-08-03T05:39:07;99699.88;;;25.33;100.00
20019;BME280;10170;42.502;26.526;2022-08-03T05:41:33;99715.06;;;25.66;100.00
20019;BME280;10170;42.502;26.526;2022-08-03T05:44:03;99714.47;;;25.56;100.00
20019;BME280;10170;42.502;26.526;2022-08-03T05:46:30;99705.47;;;25.82;91.45
20019;BME280;10170;42.502;26.526;2022-08-03T05:48:57;99709.59;;;26.21;94.50
20019;BME280;10170;42.502;26.526;2022-08-03T05:51:24;99712.59;;;26.19;82.04
20019;BME280;10170;42.502;26.526;2022-08-03T05:53:51;99700.47;;;26.25;74.17
20019;BME280;10170;42.502;26.526;2022-08-03T05:56:21;99715.59;;;26.31;69.72
20019;BME280;10170;42.502;26.526;2022-08-03T05:58:49;99717.22;;;26.68;69.51
20019;BME280;10170;42.502;26.526;2022-08-03T06:01:18;99713.34;;;26.91;64.70
20019;BME280;10170;42.502;26.526;2022-08-03T06:03:48;99718.72;;;26.74;64.96
20019;BME280;10170;42.502;26.526;2022-08-03T06:06:15;99718.84;;;26.69;64.67
20019;BME280;10170;42.502;26.526;2022-08-03T06:08:43;99709.84;;;26.68;65.11
20019;BME280;10170;42.502;26.526;2022-08-03T06:11:10;99717.78;;;26.78;63.64
20019;BME280;10170;42.502;26.526;2022-08-03T06:13:38;99709.91;;;26.77;64.13
20019;BME280;10170;42.502;26.526;2022-08-03T06:16:05;99715.53;;;26.58;63.89
20019;BME280;10170;42.502;26.526;2022-08-03T06:18:31;99712.94;;;26.97;62.52
20019;BME280;10170;42.502;26.526;2022-08-03T06:20:58;99709.41;;;26.39;64.58
20019;BME280;10170;42.502;26.526;2022-08-03T06:23:42;99720.22;;;26.80;63.31
20019;BME280;10170;42.502;26.526;2022-08-03T06:26:22;99710.56;;;27.04;60.62
20019;BME280;10170;42.502;26.526;2022-08-03T06:28:48;99715.31;;;26.90;60.88
20019;BME280;10170;42.502;26.526;2022-08-03T06:31:20;99716.94;;;26.56;61.35
20019;BME280;10170;42.502;26.526;2022-08-03T06:33:49;99713.13;;;26.79;59.64
20019;BME280;10170;42.502;26.526;2022-08-03T06:36:36;99695.47;;;27.07;59.68
20019;BME280;10170;42.502;26.526;2022-08-03T06:39:03;99711.75;;;27.43;59.91
20019;BME280;10170;42.502;26.526;2022-08-03T06:41:30;99709.41;;;27.58;58.83
20019;BME280;10170;42.502;26.526;2022-08-03T06:44:09;99704.78;;;27.67;58.17
20019;BME280;10170;42.502;26.526;2022-08-03T06:46:36;99714.31;;;27.78;55.64
20019;BME280;10170;42.502;26.526;2022-08-03T06:49:03;99703.28;;;27.53;56.24
20019;BME280;10170;42.502;26.526;2022-08-03T06:51:30;99714.69;;;27.94;55.39
20019;BME280;10170;42.502;26.526;2022-08-03T06:54:17;99725.59;;;27.85;55.54
20019;BME280;10170;42.502;26.526;2022-08-03T06:56:44;99726.16;;;28.22;54.64
20019;BME280;10170;42.502;26.526;2022-08-03T06:59:11;99727.31;;;28.46;53.78
20019;BME280;10170;42.502;26.526;2022-08-03T07:01:57;99715.72;;;28.83;52.79
20019;BME280;10170;42.502;26.526;2022-08-03T07:04:24;99721.72;;;28.77;52.29
20019;BME280;10170;42.502;26.526;2022-08-03T07:06:51;99721.34;;;29.04;51.98
20019;BME280;10170;42.502;26.526;2022-08-03T07:09:18;99728.94;;;28.81;52.46
20019;BME280;10170;42.502;26.526;2022-08-03T07:11:44;99714.91;;;28.23;53.24
20019;BME280;10170;42.502;26.526;2022-08-03T07:14:11;99717.66;;;28.40;51.70
20019;BME280;10170;42.502;26.526;2022-08-03T07:16:38;99715.72;;;28.83;50.70
20019;BME280;10170;42.502;26.526;2022-08-03T07:19:05;99719.84;;;29.32;50.35
20019;BME280;10170;42.502;26.526;2022-08-03T07:21:32;99685.78;;;28.36;51.53
20019;BME280;10170;42.502;26.526;2022-08-03T07:23:58;99725.09;;;28.65;51.20
20019;BME280;10170;42.502;26.526;2022-08-03T07:26:25;99723.09;;;29.08;50.83
20019;BME280;10170;42.502;26.526;2022-08-03T07:28:52;99717.84;;;28.52;51.77
20019;BME280;10170;42.502;26.526;2022-08-03T07:31:19;99719.94;;;28.64;51.86
20019;BME280;10170;42.502;26.526;2022-08-03T07:33:46;99716.19;;;29.02;50.04
20019;BME280;10170;42.502;26.526;2022-08-03T07:36:13;99715.69;;;29.18;50.19
20019;BME280;10170;42.502;26.526;2022-08-03T07:38:39;99729.13;;;29.48;48.94
20019;BME280;10170;42.502;26.526;2022-08-03T07:41:06;99720.88;;;29.02;49.00
20019;BME280;10170;42.502;26.526;2022-08-03T07:43:33;99731.63;;;29.24;49.40
20019;BME280;10170;42.502;26.526;2022-08-03T07:46:00;99736.44;;;29.36;48.13
20019;BME280;10170;42.502;26.526;2022-08-03T07:48:26;99729.22;;;29.23;47.70
20019;BME280;10170;42.502;26.526;2022-08-03T07:50:53;99736.69;;;29.51;47.78
20019;BME280;10170;42.502;26.526;2022-08-03T07:53:20;99727.28;;;29.06;47.79
20019;BME280;10170;42.502;26.526;2022-08-03T07:55:51;99712.78;;;29.23;47.64
20019;BME280;10170;42.502;26.526;2022-08-03T07:58:17;99729.28;;;29.89;46.61
20019;BME280;10170;42.502;26.526;2022-08-03T08:00:50;99719.50;;;29.34;46.61
20019;BME280;10170;42.502;26.526;2022-08-03T08:03:19;99727.56;;;29.39;47.27
20019;BME280;10170;42.502;26.526;2022-08-03T08:05:48;99729.28;;;30.19;46.62
20019;BME280;10170;42.502;26.526;2022-08-03T08:08:15;99733.47;;;30.16;46.29
20019;BME280;10170;42.502;26.526;2022-08-03T08:10:42;99726.44;;;30.56;45.43
20019;BME280;10170;42.502;26.526;2022-08-03T08:13:24;99724.31;;;30.12;45.78
20019;BME280;10170;42.502;26.526;2022-08-03T08:15:51;99737.97;;;30.29;45.78
20019;BME280;10170;42.502;26.526;2022-08-03T08:18:17;99728.41;;;30.06;47.11
20019;BME280;10170;42.502;26.526;2022-08-03T08:20:44;99736.09;;;30.42;45.70
20019;BME280;10170;42.502;26.526;2022-08-03T08:23:11;99741.25;;;30.43;46.11
20019;BME280;10170;42.502;26.526;2022-08-03T08:25:58;99727.66;;;29.88;47.09
20019;BME280;10170;42.502;26.526;2022-08-03T08:28:25;99726.50;;;29.98;47.03
20019;BME280;10170;42.502;26.526;2022-08-03T08:30:59;99730.19;;;30.52;46.97
20019;BME280;10170;42.502;26.526;2022-08-03T08:33:26;99726.66;;;31.04;46.55
20019;BME280;10170;42.502;26.526;2022-08-03T08:36:13;99721.13;;;30.92;46.82
20019;BME280;10170;42.502;26.526;2022-08-03T08:38:41;99714.31;;;31.67;45.37
20019;BME280;10170;42.502;26.526;2022-08-03T08:41:10;99706.69;;;31.28;45.01
20019;BME280;10170;42.502;26.526;2022-08-03T08:43:38;99717.19;;;31.71;44.97
20019;BME280;10170;42.502;26.526;2022-08-03T08:46:06;99726.09;;;31.44;44.70
20019;BME280;10170;42.502;26.526;2022-08-03T08:48:35;99711.91;;;31.21;44.57
20019;BME280;10170;42.502;26.526;2022-08-03T08:51:07;99712.28;;;31.88;44.82
20019;BME280;10170;42.502;26.526;2022-08-03T08:53:36;99719.69;;;32.12;42.97
20019;BME280;10170;42.502;26.526;2022-08-03T08:56:04;99713.25;;;31.84;43.55
20019;BME280;10170;42.502;26.526;2022-08-03T08:58:36;99705.72;;;31.93;42.80
20019;BME280;10170;42.502;26.526;2022-08-03T09:01:04;99716.47;;;31.86;43.44
20019;BME280;10170;42.502;26.526;2022-08-03T09:03:34;99710.75;;;32.15;43.78
20019;BME280;10170;42.502;26.526;2022-08-03T09:06:01;99713.66;;;31.94;43.57
20019;BME280;10170;42.502;26.526;2022-08-03T09:08:30;99707.53;;;31.65;43.30
20019;BME280;10170;42.502;26.526;2022-08-03T09:10:57;99702.63;;;32.07;43.72
20019;BME280;10170;42.502;26.526;2022-08-03T09:13:24;99716.50;;;31.98;44.53
20019;BME280;10170;42.502;26.526;2022-08-03T09:18:38;99709.81;;;32.11;44.43
20019;BME280;10170;42.502;26.526;2022-08-03T09:21:26;99701.13;;;31.73;42.84
20019;BME280;10170;42.502;26.526;2022-08-03T09:23:59;99707.88;;;31.87;43.63
20019;BME280;10170;42.502;26.526;2022-08-03T09:26:33;99697.72;;;32.40;42.93
20019;BME280;10170;42.502;26.526;2022-08-03T09:29:09;99697.94;;;32.07;44.10
20019;BME280;10170;42.502;26.526;2022-08-03T09:31:45;99692.31;;;32.55;43.14
20019;BME280;10170;42.502;26.526;2022-08-03T09:34:14;99696.47;;;32.49;42.57
20019;BME280;10170;42.502;26.526;2022-08-03T09:36:44;99696.34;;;32.46;41.80
20019;BME280;10170;42.502;26.526;2022-08-03T09:39:14;99702.34;;;32.24;42.92
20019;BME280;10170;42.502;26.526;2022-08-03T09:41:44;99700.78;;;32.11;42.34
20019;BME280;10170;42.502;26.526;2022-08-03T09:44:11;99687.63;;;31.92;43.07
20019;BME280;10170;42.502;26.526;2022-08-03T09:46:53;99695.41;;;31.90;42.39
20019;BME280;10170;42.502;26.526;2022-08-03T09:49:22;99694.03;;;31.72;43.91
20019;BME280;10170;42.502;26.526;2022-08-03T09:51:50;99684.34;;;32.26;42.39
20019;BME280;10170;42.502;26.526;2022-08-03T09:54:37;99666.00;;;32.58;42.85
20019;BME280;10170;42.502;26.526;2022-08-03T09:57:05;99669.56;;;32.58;41.88
20019;BME280;10170;42.502;26.526;2022-08-03T09:59:33;99670.47;;;32.62;42.49
20019;BME280;10170;42.502;26.526;2022-08-03T10:02:00;99675.91;;;32.74;41.30
20019;BME280;10170;42.502;26.526;2022-08-03T10:04:27;99671.19;;;32.20;42.24
20019;BME280;10170;42.502;26.526;2022-08-03T10:07:06;99670.63;;;32.02;41.56
20019;BME280;10170;42.502;26.526;2022-08-03T10:09:36;99665.13;;;31.54;42.64
20019;BME280;10170;42.502;26.526;2022-08-03T10:12:08;99667.06;;;31.29;42.89
20019;BME280;10170;42.502;26.526;2022-08-03T10:14:39;99658.91;;;31.33;43.09
20019;BME280;10170;42.502;26.526;2022-08-03T10:17:08;99659.53;;;31.38;43.96
20019;BME280;10170;42.502;26.526;2022-08-03T10:19:35;99650.81;;;31.36;43.26
20019;BME280;10170;42.502;26.526;2022-08-03T10:22:13;99653.53;;;32.09;41.79
20019;BME280;10170;42.502;26.526;2022-08-03T10:27:33;99659.63;;;31.66;42.18
20019;BME280;10170;42.502;26.526;2022-08-03T10:30:02;99655.19;;;31.61;42.98
20019;BME280;10170;42.502;26.526;2022-08-03T10:32:33;99646.44;;;31.95;43.31
20019;BME280;10170;42.502;26.526;2022-08-03T10:35:07;99649.38;;;32.27;41.61
20019;BME280;10170;42.502;26.526;2022-08-03T10:37:59;99647.81;;;32.41;42.77
20019;BME280;10170;42.502;26.526;2022-08-03T10:40:29;99623.66;;;33.06;41.33
20019;BME280;10170;42.502;26.526;2022-08-03T10:43:21;99639.63;;;33.31;40.18
20019;BME280;10170;42.502;26.526;2022-08-03T10:45:51;99631.41;;;32.88;40.43
20019;BME280;10170;42.502;26.526;2022-08-03T10:48:18;99636.13;;;32.87;40.40
20019;BME280;10170;42.502;26.526;2022-08-03T10:50:48;99630.09;;;32.15;41.47
20019;BME280;10170;42.502;26.526;2022-08-03T10:53:33;99633.75;;;32.58;41.11
20019;BME280;10170;42.502;26.526;2022-08-03T10:56:00;99626.03;;;33.07;40.11
20019;BME280;10170;42.502;26.526;2022-08-03T10:59:05;99624.69;;;33.63;39.24
20019;BME280;10170;42.502;26.526;2022-08-03T11:01:53;99627.13;;;33.18;39.47
20019;BME280;10170;42.502;26.526;2022-08-03T11:04:27;99615.00;;;32.48;40.59
20019;BME280;10170;42.502;26.526;2022-08-03T11:07:25;99613.28;;;32.87;40.29
20019;BME280;10170;42.502;26.526;2022-08-03T11:09:54;99609.94;;;32.93;40.10
20019;BME280;10170;42.502;26.526;2022-08-03T11:12:27;99601.34;;;32.67;40.51
20019;BME280;10170;42.502;26.526;2022-08-03T11:15:03;99604.22;;;33.33;40.25
20019;BME280;10170;42.502;26.526;2022-08-03T11:17:31;99613.03;;;33.08;39.82
20019;BME280;10170;42.502;26.526;2022-08-03T11:20:43;99605.13;;;33.06;40.68
20019;BME280;10170;42.502;26.526;2022-08-03T11:23:12;99613.75;;;33.20;39.96
20019;BME280;10170;42.502;26.526;2022-08-03T11:28:34;99592.84;;;32.17;39.85
20019;BME280;10170;42.502;26.526;2022-08-03T11:34:17;99583.84;;;32.32;40.99
20019;BME280;10170;42.502;26.526;2022-08-03T11:37:18;99596.84;;;32.20;41.11
20019;BME280;10170;42.502;26.526;2022-08-03T11:39:48;99585.59;;;32.52;40.44
20019;BME280;10170;42.502;26.526;2022-08-03T11:44:50;99544.28;;;31.33;41.30
20019;BME280;10170;42.502;26.526;2022-08-03T11:47:19;99577.53;;;32.32;40.74
20019;BME280;10170;42.502;26.526;2022-08-03T11:49:47;99582.84;;;32.52;39.44
20019;BME280;10170;42.502;26.526;2022-08-03T11:52:17;99590.78;;;32.85;39.75
20019;BME280;10170;42.502;26.526;2022-08-03T11:54:53;99573.22;;;33.21;39.69
20019;BME280;10170;42.502;26.526;2022-08-03T11:57:32;99593.44;;;33.44;38.44
20019;BME280;10170;42.502;26.526;2022-08-03T12:00:26;99576.44;;;33.07;38.57
20019;BME280;10170;42.502;26.526;2022-08-03T12:08:00;99566.00;;;33.32;38.39
20019;BME280;10170;42.502;26.526;2022-08-03T12:10:30;99579.44;;;32.43;38.82
20019;BME280;10170;42.502;26.526;2022-08-03T12:12:59;99572.81;;;32.75;38.74
20019;BME280;10170;42.502;26.526;2022-08-03T12:15:27;99570.56;;;32.22;40.33
20019;BME280;10170;42.502;26.526;2022-08-03T12:17:55;99564.53;;;32.44;39.79
20019;BME280;10170;42.502;26.526;2022-08-03T12:20:26;99565.00;;;33.55;38.55
20019;BME280;10170;42.502;26.526;2022-08-03T12:23:04;99575.44;;;34.38;37.13
20019;BME280;10170;42.502;26.526;2022-08-03T12:25:33;99566.84;;;33.86;37.76
20019;BME280;10170;42.502;26.526;2022-08-03T12:28:19;99563.59;;;33.80;37.89
20019;BME280;10170;42.502;26.526;2022-08-03T12:31:05;99564.03;;;34.21;37.00
20019;BME280;10170;42.502;26.526;2022-08-03T12:36:26;99554.66;;;34.44;36.57
20019;BME280;10170;42.502;26.526;2022-08-03T12:39:07;99552.25;;;35.07;35.37
20019;BME280;10170;42.502;26.526;2022-08-03T12:41:36;99553.16;;;35.15;35.06
20019;BME280;10170;42.502;26.526;2022-08-03T12:44:05;99548.09;;;35.20;35.49
20019;BME280;10170;42.502;26.526;2022-08-03T12:46:37;99543.88;;;35.52;33.47
20019;BME280;10170;42.502;26.526;2022-08-03T12:49:12;99543.56;;;36.53;32.75
20019;BME280;10170;42.502;26.526;2022-08-03T12:54:20;99528.63;;;35.39;34.40
20019;BME280;10170;42.502;26.526;2022-08-03T12:59:33;99541.34;;;35.70;33.87
20019;BME280;10170;42.502;26.526;2022-08-03T13:02:16;99536.50;;;34.05;35.21
20019;BME280;10170;42.502;26.526;2022-08-03T13:04:46;99538.75;;;34.38;35.47
20019;BME280;10170;42.502;26.526;2022-08-03T13:07:13;99537.63;;;34.61;34.51
20019;BME280;10170;42.502;26.526;2022-08-03T13:09:45;99537.00;;;34.49;34.10
20019;BME280;10170;42.502;26.526;2022-08-03T13:12:20;99523.50;;;34.66;33.90
20019;BME280;10170;42.502;26.526;2022-08-03T13:14:50;99532.94;;;35.11;33.77
20019;BME280;10170;42.502;26.526;2022-08-03T13:17:17;99526.84;;;34.56;34.08
20019;BME280;10170;42.502;26.526;2022-08-03T13:19:46;99521.91;;;34.24;34.78
20019;BME280;10170;42.502;26.526;2022-08-03T13:22:24;99523.13;;;35.13;33.84
20019;BME280;10170;42.502;26.526;2022-08-03T13:24:53;99516.31;;;34.01;34.86
20019;BME280;10170;42.502;26.526;2022-08-03T13:27:24;99514.91;;;34.49;35.25
20019;BME280;10170;42.502;26.526;2022-08-03T13:30:10;99520.84;;;35.19;34.51
20019;BME280;10170;42.502;26.526;2022-08-03T13:32:37;99514.81;;;34.90;34.52
20019;BME280;10170;42.502;26.526;2022-08-03T13:35:05;99524.69;;;35.14;34.05
20019;BME280;10170;42.502;26.526;2022-08-03T13:37:33;99521.47;;;34.22;35.12
20019;BME280;10170;42.502;26.526;2022-08-03T13:40:00;99522.16;;;33.27;35.85
20019;BME280;10170;42.502;26.526;2022-08-03T13:42:32;99519.75;;;32.63;37.41
20019;BME280;10170;42.502;26.526;2022-08-03T13:45:00;99518.97;;;32.19;37.56
20019;BME280;10170;42.502;26.526;2022-08-03T13:47:27;99517.00;;;32.47;37.78
20019;BME280;10170;42.502;26.526;2022-08-03T13:49:55;99522.19;;;33.99;35.89
20019;BME280;10170;42.502;26.526;2022-08-03T13:52:29;99493.97;;;34.70;34.22
20019;BME280;10170;42.502;26.526;2022-08-03T13:54:56;99516.59;;;35.28;33.87